Time;durP1;ratioP1;P1;durP2;ratioP2;P2;SDS_P1;SDS_P2;PMS_P1;PMS_P2;Temp;Humidity;BMP_temperature;BMP_pressure;BME280_temperature;BME280_humidity;BME280_pressure;Samples;Min_cycle;Max_cycle;Signal;HPM_P1;HPM_P2
2021/11/30 00:01:41;;;;;;;42.72;17.70;;;;;;;2.33;100.00;101024.84;5022082;28;20108;-66
2021/11/30 00:04:06;;;;;;;41.42;17.30;;;;;;;2.37;100.00;101024.09;5025750;28;20396;-67
2021/11/30 00:06:33;;;;;;;40.70;18.02;;;;;;;2.28;100.00;101028.97;5024571;28;20033;-66
2021/11/30 00:09:10;;;;;;;36.92;17.17;;;;;;;2.28;100.00;101021.13;5023211;28;20040;-67
2021/11/30 00:11:37;;;;;;;39.38;17.77;;;;;;;2.29;100.00;101009.88;5025172;28;20030;-66
2021/11/30 00:14:02;;;;;;;37.47;16.33;;;;;;;2.29;100.00;100999.44;5022395;28;20046;-66
2021/11/30 00:16:28;;;;;;;34.10;15.93;;;;;;;2.30;100.00;101005.53;5023994;28;20438;-70
2021/11/30 00:18:53;;;;;;;32.83;15.82;;;;;;;2.32;100.00;101014.34;5023641;28;20037;-70
2021/11/30 00:21:18;;;;;;;32.65;15.30;;;;;;;2.21;100.00;101013.88;5022760;28;20073;-71
2021/11/30 00:23:44;;;;;;;34.70;16.70;;;;;;;2.22;100.00;101006.13;5008483;28;20104;-70
2021/11/30 00:26:09;;;;;;;32.80;15.48;;;;;;;2.33;100.00;101016.09;5093835;27;20035;-70
2021/11/30 00:28:34;;;;;;;31.50;14.82;;;;;;;2.27;100.00;101006.31;5123650;27;20407;-70
2021/11/30 00:31:00;;;;;;;31.05;14.55;;;;;;;2.33;100.00;100997.84;5126965;27;20069;-70
2021/11/30 00:33:26;;;;;;;28.80;14.43;;;;;;;2.30;100.00;100985.59;5125798;27;20031;-72
2021/11/30 00:35:51;;;;;;;29.88;14.98;;;;;;;2.22;100.00;100987.88;5125565;27;20020;-70
2021/11/30 00:38:17;;;;;;;29.98;13.40;;;;;;;2.28;100.00;100978.53;5127255;27;20024;-70
2021/11/30 00:40:45;;;;;;;29.80;14.25;;;;;;;2.28;100.00;100971.56;5124240;27;20168;-72
2021/11/30 00:43:19;;;;;;;28.17;14.32;;;;;;;2.19;100.00;100968.59;5127526;27;20063;-71
2021/11/30 00:45:55;;;;;;;28.98;14.50;;;;;;;2.12;100.00;100979.63;5103132;28;20024;-72
2021/11/30 00:48:30;;;;;;;29.70;14.27;;;;;;;2.14;100.00;100968.41;5126763;27;20084;-70
2021/11/30 00:50:57;;;;;;;28.55;14.68;;;;;;;2.02;100.00;100955.75;5126000;27;20393;-71
2021/11/30 00:53:22;;;;;;;27.17;14.93;;;;;;;1.92;100.00;100950.97;5125866;27;20074;-70
2021/11/30 00:55:48;;;;;;;27.50;15.82;;;;;;;1.85;100.00;100935.91;5124796;27;20115;-71
2021/11/30 00:58:14;;;;;;;28.25;15.25;;;;;;;1.75;100.00;100926.84;5127021;27;20025;-65
2021/11/30 01:00:39;;;;;;;29.80;15.60;;;;;;;1.67;100.00;100931.72;5123727;27;20421;-66
2021/11/30 01:03:06;;;;;;;28.42;14.30;;;;;;;1.69;100.00;100930.09;5126992;27;20015;-67
2021/11/30 01:05:33;;;;;;;31.98;15.07;;;;;;;1.66;100.00;100937.78;5124388;27;20019;-67
2021/11/30 01:07:58;;;;;;;27.20;14.65;;;;;;;1.64;100.00;100934.19;5125682;27;20436;-68
2021/11/30 01:10:24;;;;;;;25.13;11.63;;;;;;;1.78;100.00;100924.38;5125688;27;20026;-68
2021/11/30 01:12:49;;;;;;;28.35;13.52;;;;;;;1.61;100.00;100930.59;5124695;27;20493;-67
2021/11/30 01:15:17;;;;;;;26.30;12.70;;;;;;;1.60;100.00;100927.06;5126369;27;20035;-66
2021/11/30 01:17:43;;;;;;;28.40;13.82;;;;;;;1.51;100.00;100913.66;5123687;27;20032;-66
2021/11/30 01:20:10;;;;;;;28.65;13.52;;;;;;;1.46;100.00;100920.41;5126960;27;20068;-66
2021/11/30 01:22:36;;;;;;;27.75;12.75;;;;;;;1.54;100.00;100908.56;5123657;27;20020;-66
2021/11/30 01:25:03;;;;;;;26.38;12.23;;;;;;;1.48;100.00;100918.75;5126077;27;20031;-67
2021/11/30 01:27:29;;;;;;;28.00;12.05;;;;;;;1.43;100.00;100912.44;5124245;27;20084;-66
2021/11/30 01:29:54;;;;;;;27.20;12.05;;;;;;;1.45;100.00;100916.03;5124723;27;20020;-67
2021/11/30 01:32:19;;;;;;;27.30;11.88;;;;;;;1.32;100.00;100907.66;5125908;27;20023;-67
2021/11/30 01:34:45;;;;;;;27.10;12.68;;;;;;;1.36;100.00;100914.78;5123383;27;20019;-67
2021/11/30 01:37:13;;;;;;;26.83;11.73;;;;;;;1.30;100.00;100905.84;5126873;27;20026;-67
2021/11/30 01:39:40;;;;;;;26.88;12.25;;;;;;;1.30;100.00;100918.88;5118725;27;20024;-67
2021/11/30 01:42:08;;;;;;;27.70;12.10;;;;;;;1.30;100.00;100914.53;5126306;27;20433;-67
2021/11/30 01:49:34;;;;;;;25.83;11.32;;;;;;;1.30;100.00;100908.44;5124648;27;20027;-67
2021/11/30 01:52:04;;;;;;;26.98;12.27;;;;;;;1.36;100.00;100908.69;5124986;27;20051;-67
2021/11/30 01:54:29;;;;;;;26.83;12.10;;;;;;;1.34;100.00;100906.03;5124218;27;20023;-67
2021/11/30 01:56:56;;;;;;;27.20;12.60;;;;;;;1.39;100.00;100867.16;5124240;27;20103;-67
2021/11/30 01:59:21;;;;;;;27.38;12.75;;;;;;;1.41;100.00;100875.03;5124863;27;20080;-67
2021/11/30 02:01:47;;;;;;;28.60;13.30;;;;;;;1.37;100.00;100866.22;5123577;27;20023;-66
2021/11/30 02:04:12;;;;;;;29.73;13.68;;;;;;;1.38;100.00;100842.81;5126012;27;20073;-66
2021/11/30 02:06:38;;;;;;;29.88;14.38;;;;;;;1.43;100.00;100850.81;5118209;27;20076;-67
2021/11/30 02:09:03;;;;;;;27.50;13.05;;;;;;;1.47;100.00;100846.63;5125427;27;20422;-66
2021/11/30 02:11:29;;;;;;;29.00;14.55;;;;;;;1.45;100.00;100843.06;5123540;27;20023;-67
2021/11/30 02:13:54;;;;;;;29.73;15.07;;;;;;;1.49;100.00;100844.97;5123809;27;20048;-66
2021/11/30 02:16:21;;;;;;;30.63;16.90;;;;;;;1.49;100.00;100824.13;5107308;27;20390;-68
2021/11/30 02:18:48;;;;;;;29.55;15.73;;;;;;;1.48;100.00;100830.16;5123929;27;20015;-67
2021/11/30 02:21:14;;;;;;;32.40;17.35;;;;;;;1.50;100.00;100815.47;5127002;27;20027;-69
2021/11/30 02:23:43;;;;;;;31.17;17.38;;;;;;;1.48;100.00;100804.09;5123189;27;20028;-67
2021/11/30 02:26:12;;;;;;;32.22;17.50;;;;;;;1.49;100.00;100790.25;5119383;27;20024;-67
2021/11/30 02:28:40;;;;;;;33.53;19.23;;;;;;;1.52;100.00;100806.00;5126439;27;20027;-67
2021/11/30 02:31:06;;;;;;;34.47;20.65;;;;;;;1.53;100.00;100805.16;5123918;27;20110;-68
2021/11/30 02:33:32;;;;;;;36.15;21.52;;;;;;;1.62;100.00;100795.13;5125358;27;20080;-67
2021/11/30 02:35:57;;;;;;;36.95;22.33;;;;;;;1.60;100.00;100775.91;5130732;27;20026;-75
2021/11/30 02:38:23;;;;;;;36.60;21.77;;;;;;;1.63;100.00;100781.28;5124544;27;20102;-72
2021/11/30 02:40:49;;;;;;;34.88;22.92;;;;;;;1.60;100.00;100759.41;5124733;27;20462;-73
2021/11/30 02:43:15;;;;;;;41.45;25.40;;;;;;;1.63;100.00;100757.81;5103822;28;20039;-71
2021/11/30 02:45:41;;;;;;;37.70;24.08;;;;;;;1.70;100.00;100772.88;5125832;27;20023;-71
2021/11/30 02:48:06;;;;;;;39.10;25.55;;;;;;;1.72;100.00;100759.91;5122491;27;20374;-73
2021/11/30 02:50:39;;;;;;;37.28;24.05;;;;;;;1.79;100.00;100751.50;5106014;27;20039;-71
2021/11/30 02:53:06;;;;;;;38.60;25.35;;;;;;;1.82;100.00;100748.09;5121756;27;20064;-70
2021/11/30 02:55:32;;;;;;;37.78;26.10;;;;;;;1.88;100.00;100746.63;5124228;27;20020;-70
2021/11/30 02:57:57;;;;;;;39.88;26.35;;;;;;;1.90;100.00;100744.06;5123273;27;20343;-71
2021/11/30 03:00:22;;;;;;;38.70;27.15;;;;;;;1.95;100.00;100749.44;5123177;27;20027;-70
2021/11/30 03:02:48;;;;;;;40.10;28.15;;;;;;;1.94;100.00;100745.06;5124499;27;20458;-73
2021/11/30 03:05:13;;;;;;;39.97;28.75;;;;;;;1.92;100.00;100735.47;5121498;27;20028;-69
2021/11/30 03:07:39;;;;;;;39.67;28.77;;;;;;;1.99;100.00;100738.31;5117516;28;20065;-69
2021/11/30 03:10:12;;;;;;;39.72;27.23;;;;;;;1.98;100.00;100711.34;5124359;28;20103;-68
2021/11/30 03:12:38;;;;;;;44.60;30.17;;;;;;;2.03;100.00;100711.53;5121810;28;20046;-72
2021/11/30 03:15:17;;;;;;;43.75;30.70;;;;;;;2.05;100.00;100708.16;5124283;28;20043;-70
2021/11/30 03:17:44;;;;;;;43.10;31.25;;;;;;;2.06;100.00;100714.25;5118226;28;20028;-72
2021/11/30 03:20:10;;;;;;;44.28;31.17;;;;;;;2.09;100.00;100720.44;5117385;28;20050;-67
2021/11/30 03:22:36;;;;;;;44.40;32.30;;;;;;;2.13;100.00;100715.38;5124758;28;20015;-68
2021/11/30 03:25:02;;;;;;;46.42;32.67;;;;;;;2.15;100.00;100713.69;5122653;28;20023;-67
2021/11/30 03:27:27;;;;;;;45.67;33.60;;;;;;;2.21;100.00;100711.28;5123429;28;20114;-67
2021/11/30 03:29:53;;;;;;;48.30;34.67;;;;;;;2.26;100.00;100701.94;5123461;28;20093;-68
2021/11/30 03:35:00;;;;;;;47.53;33.38;;;;;;;2.36;100.00;100690.97;5122616;28;20050;-68
2021/11/30 03:37:25;;;;;;;49.25;34.05;;;;;;;2.38;100.00;100698.88;5122969;28;20043;-68
2021/11/30 03:39:52;;;;;;;49.63;36.55;;;;;;;2.41;100.00;100692.03;5124069;28;20103;-68
2021/11/30 03:42:18;;;;;;;48.28;36.50;;;;;;;2.48;100.00;100703.56;5121872;28;20024;-67
2021/11/30 03:44:43;;;;;;;48.45;36.22;;;;;;;2.52;100.00;100681.97;5124676;28;20023;-67
2021/11/30 03:47:09;;;;;;;51.78;37.85;;;;;;;2.53;100.00;100683.72;5117070;28;20676;-68
2021/11/30 03:49:34;;;;;;;49.38;37.13;;;;;;;2.58;100.00;100694.34;5124261;28;20023;-68
2021/11/30 03:51:59;;;;;;;52.40;37.97;;;;;;;2.64;100.00;100672.78;5122315;28;20020;-67
2021/11/30 03:54:25;;;;;;;51.17;38.80;;;;;;;2.67;100.00;100672.88;5122962;28;20133;-67
2021/11/30 03:56:52;;;;;;;54.97;39.85;;;;;;;2.70;100.00;100668.66;5123630;28;20023;-67
2021/11/30 03:59:17;;;;;;;53.97;41.10;;;;;;;2.73;100.00;100653.09;5121743;28;20027;-67
2021/11/30 04:01:43;;;;;;;57.67;42.03;;;;;;;2.79;100.00;100658.50;5124914;28;20034;-70
2021/11/30 04:04:12;;;;;;;60.15;42.65;;;;;;;2.82;100.00;100667.28;5123850;27;20406;-70
2021/11/30 04:06:38;;;;;;;61.05;42.88;;;;;;;2.85;100.00;100656.94;5101158;27;20062;-70
2021/11/30 04:09:03;;;;;;;62.45;42.92;;;;;;;2.90;100.00;100647.53;5125742;27;20106;-68
2021/11/30 04:11:28;;;;;;;59.72;43.55;;;;;;;2.93;100.00;100661.56;5126993;27;20034;-70
2021/11/30 04:13:54;;;;;;;61.88;42.05;;;;;;;3.00;100.00;100652.22;5126802;27;20047;-71
2021/11/30 04:16:19;;;;;;;61.05;41.47;;;;;;;3.02;100.00;100641.81;5125464;27;20032;-67
2021/11/30 04:18:45;;;;;;;60.13;42.83;;;;;;;3.06;100.00;100655.03;5128292;27;20067;-70
2021/11/30 04:21:10;;;;;;;62.38;45.22;;;;;;;3.09;100.00;100649.88;5124808;27;20024;-70
2021/11/30 04:23:35;;;;;;;60.83;42.72;;;;;;;3.12;100.00;100646.50;5127511;27;20015;-70
2021/11/30 04:26:01;;;;;;;64.03;45.80;;;;;;;3.18;100.00;100636.22;5125618;27;20031;-69
2021/11/30 04:28:27;;;;;;;61.47;42.35;;;;;;;3.26;100.00;100634.75;5126410;27;20034;-71
2021/11/30 04:30:52;;;;;;;61.40;44.65;;;;;;;3.28;100.00;100637.41;5126849;27;20019;-68
2021/11/30 04:33:18;;;;;;;62.03;43.55;;;;;;;3.30;100.00;100635.72;5124769;27;20474;-69
2021/11/30 04:35:44;;;;;;;62.75;44.25;;;;;;;3.32;100.00;100636.66;5128167;27;20019;-67
2021/11/30 04:38:09;;;;;;;62.22;42.85;;;;;;;3.35;100.00;100641.06;5124194;27;20124;-70
2021/11/30 04:40:34;;;;;;;66.20;45.22;;;;;;;3.37;100.00;100637.69;5127100;27;20034;-68
2021/11/30 04:43:01;;;;;;;66.82;44.05;;;;;;;3.43;100.00;100623.91;5125687;27;20084;-67
2021/11/30 04:45:31;;;;;;;66.22;42.55;;;;;;;3.46;100.00;100622.25;5125730;27;20466;-69
2021/11/30 04:47:57;;;;;;;66.00;42.70;;;;;;;3.48;100.00;100625.81;5126026;27;20027;-68
2021/11/30 04:50:31;;;;;;;69.70;45.83;;;;;;;3.54;100.00;100621.59;5126406;27;20493;-68
2021/11/30 04:52:58;;;;;;;71.30;44.40;;;;;;;3.58;100.00;100616.53;5126516;27;20046;-68
2021/11/30 04:55:25;;;;;;;75.75;47.58;;;;;;;3.63;100.00;100617.53;5125278;27;20035;-71
2021/11/30 04:57:57;;;;;;;80.85;47.78;;;;;;;3.62;100.00;100612.28;5126752;27;20054;-71
2021/11/30 05:00:23;;;;;;;77.90;47.15;;;;;;;3.63;100.00;100596.63;5125048;27;20028;-71
2021/11/30 05:02:49;;;;;;;79.10;45.58;;;;;;;3.71;100.00;100599.44;5126792;27;20023;-77
2021/11/30 05:05:14;;;;;;;79.95;47.63;;;;;;;3.73;100.00;100605.63;5123647;27;20016;-70
2021/11/30 05:07:41;;;;;;;82.70;48.90;;;;;;;3.75;100.00;100606.53;5119722;27;20032;-69
2021/11/30 05:10:09;;;;;;;85.75;48.45;;;;;;;3.81;100.00;100603.22;5126654;27;20019;-68
2021/11/30 05:12:34;;;;;;;85.97;47.88;;;;;;;3.86;100.00;100592.88;5124521;27;20076;-68
2021/11/30 05:15:00;;;;;;;82.70;47.15;;;;;;;3.90;100.00;100587.78;5125257;27;20047;-67
2021/11/30 05:17:25;;;;;;;89.45;50.83;;;;;;;3.91;100.00;100584.31;5125454;27;20427;-67
2021/11/30 05:19:51;;;;;;;85.90;49.42;;;;;;;3.95;100.00;100573.09;5124496;27;20051;-70
2021/11/30 05:22:16;;;;;;;86.13;47.53;;;;;;;4.01;100.00;100578.50;5126780;27;20473;-68
2021/11/30 05:24:41;;;;;;;89.47;52.58;;;;;;;4.07;100.00;100577.78;5123518;27;20035;-70
2021/11/30 05:27:07;;;;;;;91.03;48.40;;;;;;;4.12;100.00;100573.56;5126623;27;20374;-69
2021/11/30 05:29:32;;;;;;;91.88;46.42;;;;;;;4.18;100.00;100572.84;5124386;27;20027;-72
2021/11/30 05:31:57;;;;;;;90.60;47.35;;;;;;;4.22;100.00;100579.03;5125144;27;20470;-68
2021/11/30 05:34:23;;;;;;;92.22;47.67;;;;;;;4.27;100.00;100583.53;5125748;27;20047;-69
2021/11/30 05:36:48;;;;;;;87.55;45.03;;;;;;;4.36;100.00;100575.03;5123632;27;20054;-68
2021/11/30 05:39:14;;;;;;;94.30;49.85;;;;;;;4.37;100.00;100566.34;5126552;27;20058;-68
2021/11/30 05:41:39;;;;;;;86.50;47.95;;;;;;;4.47;100.00;100570.97;5123508;27;20016;-68
2021/11/30 05:44:05;;;;;;;83.93;44.85;;;;;;;4.53;100.00;100583.31;5125635;27;20618;-68
2021/11/30 05:46:35;;;;;;;78.32;41.30;;;;;;;4.62;100.00;100580.91;5124244;27;20062;-68
2021/11/30 05:49:00;;;;;;;77.75;38.58;;;;;;;4.69;100.00;100582.84;5125128;27;20053;-69
2021/11/30 05:51:25;;;;;;;75.78;39.65;;;;;;;4.78;100.00;100600.50;5124904;27;20062;-68
2021/11/30 05:53:51;;;;;;;68.32;35.92;;;;;;;4.83;100.00;100588.38;5123440;27;20098;-69
2021/11/30 05:56:16;;;;;;;69.43;35.85;;;;;;;4.85;100.00;100573.59;5126406;27;20019;-68
2021/11/30 05:58:43;;;;;;;68.63;36.10;;;;;;;4.91;100.00;100582.44;5122860;27;20024;-68
2021/11/30 06:01:11;;;;;;;70.00;34.92;;;;;;;4.92;100.00;100581.59;5127500;27;20064;-69
2021/11/30 06:04:11;;;;;;;66.20;33.22;;;;;;;4.92;100.00;100579.84;5124650;27;20027;-69
2021/11/30 06:06:33;;;;;;;62.83;31.73;;;;;;;4.97;100.00;100577.38;5122451;27;20497;-69
2021/11/30 06:09:00;;;;;;;60.22;28.27;;;;;;;5.04;100.00;100584.53;5125458;27;20053;-68
2021/11/30 06:11:26;;;;;;;60.00;31.13;;;;;;;5.06;100.00;100588.03;5125071;27;20103;-69
2021/11/30 06:13:52;;;;;;;57.15;29.15;;;;;;;5.09;100.00;100592.47;5144370;27;20053;-69
2021/11/30 06:16:18;;;;;;;58.40;29.67;;;;;;;5.10;100.00;100591.59;5143424;27;20099;-70
2021/11/30 06:18:44;;;;;;;57.72;29.83;;;;;;;5.14;100.00;100591.75;5147006;27;20091;-68
2021/11/30 06:21:11;;;;;;;57.47;30.25;;;;;;;5.13;100.00;100584.72;5143292;27;20023;-69
2021/11/30 06:23:38;;;;;;;56.70;29.48;;;;;;;5.13;100.00;100587.34;5144787;27;20114;-69
2021/11/30 06:26:03;;;;;;;56.50;29.55;;;;;;;5.19;100.00;100589.22;5121757;28;20027;-71
2021/11/30 06:28:29;;;;;;;51.83;27.27;;;;;;;5.19;100.00;100573.50;5120841;27;20519;-70
2021/11/30 06:30:54;;;;;;;54.92;28.48;;;;;;;5.18;100.00;100572.59;5112281;27;20027;-69
2021/11/30 06:33:19;;;;;;;51.80;26.90;;;;;;;5.23;100.00;100576.19;5110265;28;20027;-70
2021/11/30 06:35:45;;;;;;;54.92;26.83;;;;;;;5.23;100.00;100581.44;5114479;27;20040;-68
2021/11/30 06:38:10;;;;;;;54.05;25.98;;;;;;;5.24;100.00;100577.97;5110230;28;20024;-70
2021/11/30 06:40:35;;;;;;;53.58;26.42;;;;;;;5.26;100.00;100579.72;5109780;28;20016;-69
2021/11/30 06:43:01;;;;;;;50.72;27.08;;;;;;;5.30;100.00;100584.19;5110696;27;20034;-68
2021/11/30 06:45:26;;;;;;;51.42;26.17;;;;;;;5.31;100.00;100589.47;5109931;28;20027;-68
2021/11/30 06:47:51;;;;;;;52.78;27.15;;;;;;;5.30;100.00;100587.72;5115639;27;20113;-70
2021/11/30 06:50:17;;;;;;;51.88;27.40;;;;;;;5.30;100.00;100595.59;5108813;28;20030;-68
2021/11/30 06:52:43;;;;;;;51.63;27.45;;;;;;;5.34;100.00;100589.53;5114397;27;20023;-69
2021/11/30 06:55:09;;;;;;;52.60;27.38;;;;;;;5.34;100.00;100594.78;5111593;27;20027;-69
2021/11/30 06:57:35;;;;;;;52.40;25.80;;;;;;;5.35;100.00;100582.56;5109203;28;20062;-68
2021/11/30 07:00:07;;;;;;;48.97;26.58;;;;;;;5.37;100.00;100599.19;5112842;28;20019;-68
2021/11/30 07:02:34;;;;;;;48.20;25.42;;;;;;;5.39;100.00;100590.53;5112643;28;20036;-68
2021/11/30 07:05:06;;;;;;;50.72;25.75;;;;;;;5.40;100.00;100578.28;5111312;28;20019;-69
2021/11/30 07:07:44;;;;;;;50.90;26.23;;;;;;;5.41;100.00;100575.69;5116156;28;20148;-68
2021/11/30 07:10:34;;;;;;;48.40;27.35;;;;;;;5.46;100.00;100583.69;5115481;28;20027;-69
2021/11/30 07:13:13;;;;;;;48.58;26.73;;;;;;;5.44;100.00;100563.53;5111168;28;20027;-70
2021/11/30 07:15:38;;;;;;;50.75;27.35;;;;;;;5.47;100.00;100581.94;5109646;28;20044;-69
2021/11/30 07:18:04;;;;;;;51.45;27.23;;;;;;;5.48;100.00;100565.38;5115929;28;20038;-68
2021/11/30 07:20:30;;;;;;;50.55;25.60;;;;;;;5.48;100.00;100568.00;5113282;28;20538;-71
2021/11/30 07:22:57;;;;;;;48.88;25.60;;;;;;;5.50;100.00;100574.13;5118474;28;20027;-69
2021/11/30 07:25:26;;;;;;;50.60;25.80;;;;;;;5.50;100.00;100569.75;5113314;28;20054;-69
2021/11/30 07:27:53;;;;;;;52.15;28.23;;;;;;;5.51;100.00;100571.53;5115130;28;20034;-70
2021/11/30 07:30:19;;;;;;;49.95;25.60;;;;;;;5.54;100.00;100576.84;5119332;28;20034;-69
2021/11/30 07:32:45;;;;;;;51.40;26.48;;;;;;;5.55;100.00;100573.38;5115516;28;20110;-69
2021/11/30 07:35:10;;;;;;;52.47;28.23;;;;;;;5.54;100.00;100568.97;5115083;28;20369;-67
2021/11/30 07:37:36;;;;;;;55.60;29.80;;;;;;;5.57;100.00;100571.66;5113679;28;20084;-67
2021/11/30 07:40:03;;;;;;;53.33;28.95;;;;;;;5.58;100.00;100568.19;5120035;27;20019;-69
2021/11/30 07:42:32;;;;;;;54.45;30.02;;;;;;;5.63;100.00;100575.28;5111886;27;20031;-69
2021/11/30 07:44:58;;;;;;;56.65;31.65;;;;;;;5.62;100.00;100571.78;5115487;27;20076;-68
2021/11/30 07:47:24;;;;;;;54.60;30.25;;;;;;;5.65;100.00;100576.19;5113234;28;20681;-69
2021/11/30 07:49:49;;;;;;;55.83;31.63;;;;;;;5.66;100.00;100586.69;5112428;28;20059;-69
2021/11/30 07:52:15;;;;;;;55.05;31.45;;;;;;;5.67;100.00;100587.59;5114179;27;20148;-68
2021/11/30 07:54:40;;;;;;;58.90;34.10;;;;;;;5.68;100.00;100584.09;5119797;27;20032;-69
2021/11/30 07:57:06;;;;;;;58.33;32.05;;;;;;;5.68;100.00;100594.59;5117822;27;20523;-67
2021/11/30 07:59:32;;;;;;;58.20;32.65;;;;;;;5.71;100.00;100597.31;5099168;28;20035;-68
2021/11/30 08:01:59;;;;;;;58.22;33.38;;;;;;;5.75;100.00;100596.50;5119496;27;20077;-69
2021/11/30 08:04:24;;;;;;;58.92;34.10;;;;;;;5.74;100.00;100605.25;5101266;28;20067;-69
2021/11/30 08:06:50;;;;;;;59.10;32.38;;;;;;;5.74;100.00;100602.63;5102294;27;20066;-70
2021/11/30 08:09:15;;;;;;;55.63;31.83;;;;;;;5.78;100.00;100612.28;5119236;27;20103;-69
2021/11/30 08:11:41;;;;;;;59.20;31.13;;;;;;;5.80;100.00;100605.34;5117577;27;20016;-69
2021/11/30 08:14:07;;;;;;;55.92;30.23;;;;;;;5.81;100.00;100607.13;5124401;27;20478;-69
2021/11/30 08:16:32;;;;;;;55.70;31.20;;;;;;;5.83;100.00;100604.53;5117534;27;20114;-71
2021/11/30 08:18:58;;;;;;;55.72;29.38;;;;;;;5.85;100.00;100602.81;5127920;27;20027;-70
2021/11/30 08:21:23;;;;;;;56.42;29.35;;;;;;;5.87;100.00;100606.38;5122190;27;20059;-71
2021/11/30 08:23:48;;;;;;;55.70;29.05;;;;;;;5.88;100.00;100614.28;5117987;27;20107;-71
2021/11/30 08:26:14;;;;;;;53.47;26.80;;;;;;;5.91;100.00;100609.09;5118394;27;20028;-70
2021/11/30 08:28:40;;;;;;;53.40;29.40;;;;;;;5.94;100.00;100618.72;5122313;27;20034;-70
2021/11/30 08:31:06;;;;;;;54.08;28.02;;;;;;;5.98;100.00;100610.09;5125790;27;20030;-69
2021/11/30 08:33:31;;;;;;;51.97;27.38;;;;;;;6.00;100.00;100608.41;5125498;27;20015;-70
2021/11/30 08:35:57;;;;;;;52.42;26.85;;;;;;;6.04;100.00;100615.50;5102526;27;20363;-71
2021/11/30 08:38:24;;;;;;;53.35;26.38;;;;;;;6.06;100.00;100607.66;5119640;27;20026;-69
2021/11/30 08:40:49;;;;;;;50.72;24.20;;;;;;;6.09;100.00;100607.69;5117969;27;20015;-71
2021/11/30 08:43:16;;;;;;;51.08;24.58;;;;;;;6.14;100.00;100600.78;5112049;27;20022;-71
2021/11/30 08:45:41;;;;;;;49.20;23.88;;;;;;;6.18;100.00;100601.72;5119230;27;20028;-75
2021/11/30 08:48:07;;;;;;;52.05;25.17;;;;;;;6.23;100.00;100597.44;5119119;27;20102;-71
2021/11/30 08:50:32;;;;;;;51.00;24.25;;;;;;;6.29;100.00;100592.28;5126862;27;20031;-70
2021/11/30 08:52:58;;;;;;;50.60;23.10;;;;;;;6.31;100.00;100597.59;5124464;27;20393;-71
2021/11/30 08:55:24;;;;;;;48.03;23.48;;;;;;;6.39;100.00;100601.22;5126149;27;20426;-71
2021/11/30 08:57:49;;;;;;;48.40;22.35;;;;;;;6.43;100.00;100603.06;5126142;27;20052;-72
2021/11/30 09:00:21;;;;;;;45.00;21.77;;;;;;;6.53;100.00;100591.84;5105727;27;20118;-71
2021/11/30 09:02:47;;;;;;;45.03;21.60;;;;;;;6.58;100.00;100594.53;5126040;27;20023;-72
2021/11/30 09:05:13;;;;;;;46.88;20.45;;;;;;;6.63;100.00;100587.63;5124488;27;20498;-71
2021/11/30 09:07:39;;;;;;;40.75;19.70;;;;;;;6.72;100.00;100595.66;5126969;27;20412;-72
2021/11/30 09:10:07;;;;;;;41.03;18.90;;;;;;;6.74;100.00;100583.44;5123747;27;20080;-71
2021/11/30 09:12:33;;;;;;;39.00;17.90;;;;;;;6.77;100.00;100580.84;5105422;28;20505;-72
2021/11/30 09:14:59;;;;;;;37.72;16.88;;;;;;;6.80;100.00;100580.91;5118163;27;20075;-71
2021/11/30 09:17:24;;;;;;;39.70;17.40;;;;;;;6.83;100.00;100579.16;5116984;27;20089;-73
2021/11/30 09:19:51;;;;;;;34.83;17.42;;;;;;;6.88;100.00;100588.91;5117404;27;20032;-70
2021/11/30 09:22:17;;;;;;;38.33;16.48;;;;;;;6.90;100.00;100583.66;5117535;27;20023;-70
2021/11/30 09:24:42;;;;;;;37.35;17.83;;;;;;;6.94;100.00;100593.38;5115888;27;20027;-70
2021/11/30 09:27:08;;;;;;;37.53;17.15;;;;;;;6.94;100.00;100586.34;5112073;27;20106;-72
2021/11/30 09:29:33;;;;;;;35.58;16.83;;;;;;;7.00;100.00;100590.81;5119358;27;20024;-74
2021/11/30 09:31:59;;;;;;;36.88;16.63;;;;;;;7.00;100.00;100588.19;5112163;27;20028;-71
2021/11/30 09:34:25;;;;;;;36.00;16.90;;;;;;;7.03;100.00;100592.63;5116661;27;20029;-71
2021/11/30 09:36:54;;;;;;;36.63;17.17;;;;;;;7.04;100.00;100599.66;5119201;27;20019;-72
2021/11/30 09:39:21;;;;;;;37.45;17.25;;;;;;;7.06;100.00;100592.66;5115301;27;20553;-69
2021/11/30 09:41:47;;;;;;;35.85;16.80;;;;;;;7.08;100.00;100590.97;5116343;27;20454;-69
2021/11/30 09:44:13;;;;;;;37.67;15.68;;;;;;;7.11;100.00;100591.00;5117312;27;20023;-69
2021/11/30 09:46:39;;;;;;;36.03;16.40;;;;;;;7.13;100.00;100595.38;5116886;27;20030;-70
2021/11/30 09:49:05;;;;;;;36.03;16.65;;;;;;;7.17;100.00;100624.38;5117922;27;20027;-69
2021/11/30 09:51:30;;;;;;;36.13;16.92;;;;;;;7.19;100.00;100613.00;5117379;27;20450;-69
2021/11/30 09:53:56;;;;;;;36.47;17.65;;;;;;;7.20;100.00;100603.38;5115912;27;20023;-69
2021/11/30 09:56:22;;;;;;;34.40;14.73;;;;;;;7.24;100.00;100616.59;5116600;27;20456;-69
2021/11/30 09:58:47;;;;;;;40.88;16.63;;;;;;;7.24;100.00;100618.34;5114296;27;20023;-69
2021/11/30 10:01:13;;;;;;;36.55;16.67;;;;;;;7.27;100.00;100608.75;5116258;27;20447;-69
2021/11/30 10:03:42;;;;;;;35.97;16.58;;;;;;;7.37;100.00;100612.41;5117558;27;20106;-70
2021/11/30 10:06:09;;;;;;;35.50;15.45;;;;;;;7.39;100.00;100621.19;5114703;27;20019;-69
2021/11/30 10:08:38;;;;;;;32.55;13.10;;;;;;;7.41;100.00;100618.56;5116301;27;20458;-69
2021/11/30 10:11:05;;;;;;;36.17;16.85;;;;;;;7.40;100.00;100609.81;5113589;27;20490;-69
2021/11/30 10:13:30;;;;;;;35.53;16.65;;;;;;;7.38;100.00;100610.63;5122198;27;20081;-69
2021/11/30 10:15:56;;;;;;;33.95;15.27;;;;;;;7.41;100.00;100608.06;5125244;27;20420;-69
2021/11/30 10:18:37;;;;;;;40.00;16.90;;;;;;;7.45;100.00;100623.00;5121943;27;20024;-69
2021/11/30 10:21:08;;;;;;;35.03;16.58;;;;;;;7.51;100.00;100604.69;5120287;27;20043;-69
2021/11/30 10:23:55;;;;;;;39.45;16.73;;;;;;;7.45;100.00;100625.66;5124166;27;20015;-69
2021/11/30 10:26:24;;;;;;;35.75;16.77;;;;;;;7.48;100.00;100609.91;5117578;27;20036;-69
2021/11/30 10:28:52;;;;;;;36.22;16.05;;;;;;;7.51;100.00;100615.19;5125261;27;20023;-69
2021/11/30 10:31:17;;;;;;;33.75;16.35;;;;;;;7.54;100.00;100614.38;5122659;27;20032;-69
2021/11/30 10:33:48;;;;;;;38.13;16.67;;;;;;;7.57;100.00;100620.56;5124399;27;20023;-69
2021/11/30 10:36:13;;;;;;;38.35;15.48;;;;;;;7.58;100.00;100617.03;5122778;27;20027;-69
2021/11/30 10:38:41;;;;;;;33.83;15.27;;;;;;;7.59;100.00;100621.44;5123982;27;20023;-69
2021/11/30 10:41:25;;;;;;;36.17;16.83;;;;;;;7.58;100.00;100621.44;5123886;27;20019;-69
2021/11/30 10:43:56;;;;;;;35.35;15.50;;;;;;;7.61;100.00;100605.69;5129775;27;20041;-70
2021/11/30 10:46:27;;;;;;;35.42;13.50;;;;;;;7.69;100.00;100614.56;5122272;27;20020;-70
2021/11/30 10:48:53;;;;;;;35.78;15.27;;;;;;;7.70;100.00;100620.72;5118022;27;20081;-70
2021/11/30 10:51:19;;;;;;;35.78;15.52;;;;;;;7.69;100.00;100606.69;5127934;27;20033;-70
2021/11/30 10:53:46;;;;;;;35.53;15.63;;;;;;;7.70;100.00;100610.19;5126969;27;20462;-70
2021/11/30 10:56:12;;;;;;;37.38;16.25;;;;;;;7.70;100.00;100623.34;5127530;27;20028;-70
2021/11/30 10:58:40;;;;;;;38.78;15.75;;;;;;;7.70;100.00;100620.72;5123921;27;20046;-69
2021/11/30 11:01:17;;;;;;;35.75;13.68;;;;;;;7.71;100.00;100617.22;5128031;27;20489;-70
2021/11/30 11:03:43;;;;;;;32.92;13.23;;;;;;;7.73;100.00;100610.22;5127272;27;20026;-70
2021/11/30 11:08:55;;;;;;;40.67;15.75;;;;;;;7.66;100.00;100625.94;5123157;27;20112;-70
2021/11/30 11:11:45;;;;;;;37.40;15.65;;;;;;;7.69;100.00;100630.34;5129293;28;20020;-70
2021/11/30 11:14:20;;;;;;;36.17;15.63;;;;;;;7.69;100.00;100614.56;5125451;28;20043;-70
2021/11/30 11:16:51;;;;;;;38.05;15.48;;;;;;;7.71;100.00;100619.84;5123399;28;20026;-70
2021/11/30 11:19:17;;;;;;;35.65;15.32;;;;;;;7.72;100.00;100611.06;5124292;28;20490;-70